createdAt,value
2018-01-19T00:00:58.058Z,3.9
2018-01-19T00:10:57.790Z,4.8
2018-01-19T00:20:57.642Z,3.5
2018-01-19T00:30:57.410Z,2.8
2018-01-19T00:40:58.123Z,3.7
2018-01-19T00:50:57.973Z,2.6
2018-01-19T01:00:57.767Z,3.4
2018-01-19T01:10:57.509Z,4.1
2018-01-19T01:20:58.411Z,4.3
2018-01-19T01:30:58.138Z,2.3
2018-01-19T01:40:57.901Z,2.7
2018-01-19T01:50:57.640Z,3.4
2018-01-19T02:00:58.331Z,2.8
2018-01-19T02:10:58.028Z,4.0
2018-01-19T02:20:57.863Z,2.5
2018-01-19T02:30:57.556Z,4.1
2018-01-19T02:40:58.242Z,3.6
2018-01-19T02:50:57.877Z,3.6
2018-01-19T03:00:57.580Z,4.5
2018-01-19T03:10:58.318Z,3.8
2018-01-19T03:20:58.136Z,2.5
2018-01-19T03:30:57.918Z,3.5
2018-01-19T03:40:57.706Z,2.3
2018-01-19T03:50:57.411Z,1.9
2018-01-19T04:00:58.112Z,2.7
2018-01-19T04:10:57.805Z,2.0
2018-01-19T04:20:57.605Z,2.8
2018-01-19T04:30:58.304Z,3.7
2018-01-19T04:40:58.000Z,2.7
2018-01-19T04:50:57.687Z,3.0
2018-01-19T05:00:57.425Z,3.2
2018-01-19T05:10:58.158Z,2.7
2018-01-19T05:20:58.013Z,2.3
2018-01-19T05:30:57.497Z,2.5
2018-01-19T05:40:58.301Z,3.0
2018-01-19T05:50:58.018Z,5.0
2018-01-19T06:00:57.717Z,3.7
2018-01-19T06:10:57.445Z,4.5
2018-01-19T06:20:58.277Z,4.7
2018-01-19T06:30:57.992Z,3.9
2018-01-19T06:40:57.689Z,3.5
2018-01-19T06:50:57.408Z,4.7
2018-01-19T07:00:58.120Z,6.2
2018-01-19T07:10:57.810Z,4.5
2018-01-19T07:20:57.627Z,5.6
2018-01-19T07:30:58.336Z,5.6
2018-01-19T07:40:58.007Z,6.2
2018-01-19T07:50:57.720Z,5.4
2018-01-19T08:00:57.525Z,7.1
2018-01-19T08:10:58.245Z,7.6
2018-01-19T08:20:58.113Z,8.6
2018-01-19T08:30:57.870Z,7.0
2018-01-19T08:40:57.698Z,8.0
2018-01-19T08:50:57.481Z,8.3
2018-01-19T09:00:58.325Z,7.2
2018-01-19T09:10:58.099Z,9.5
2018-01-19T09:20:57.998Z,8.3
2018-01-19T09:30:57.752Z,10.2
2018-01-19T09:40:57.534Z,10.7
2018-01-19T09:50:58.285Z,8.1
2018-01-19T10:00:58.196Z,10.6
2018-01-19T10:10:57.934Z,9.4
2018-01-19T10:20:57.837Z,6.9
2018-01-19T10:30:57.546Z,9.2
2018-01-19T10:40:58.254Z,8.7
2018-01-19T10:50:57.967Z,10.2
2018-01-19T11:00:57.687Z,14.0
2018-01-19T11:10:57.397Z,12.6
2018-01-19T11:20:58.179Z,9.5
2018-01-19T11:30:57.853Z,7.0
2018-01-19T11:40:57.589Z,8.1
2018-01-19T11:50:58.289Z,9.4
2018-01-19T12:00:58.144Z,11.9
2018-01-19T12:10:57.872Z,11.6
2018-01-19T12:20:57.700Z,10.7
2018-01-19T12:30:57.454Z,9.6
2018-01-19T12:40:58.124Z,11.9
2018-01-19T12:50:57.821Z,14.2
2018-01-19T13:00:57.449Z,14.8
2018-01-19T13:10:58.148Z,13.5
2018-01-19T13:20:57.989Z,14.0
2018-01-19T13:30:57.726Z,17.2
2018-01-19T13:40:57.452Z,18.2
2018-01-19T13:50:58.125Z,21.0
2018-01-19T14:00:57.769Z,24.5
2018-01-19T14:10:57.532Z,27.1
2018-01-19T14:20:58.355Z,27.4
2018-01-19T14:30:58.143Z,26.0
2018-01-19T14:40:57.780Z,26.5
2018-01-19T14:50:57.522Z,29.0
2018-01-19T15:00:58.246Z,32.0
2018-01-19T15:10:57.960Z,28.9
2018-01-19T15:20:57.796Z,33.1
2018-01-19T15:30:57.696Z,38.0
2018-01-19T15:40:58.457Z,37.3
2018-01-19T15:50:58.263Z,38.7
2018-01-19T16:00:58.010Z,35.3
2018-01-19T16:10:57.807Z,37.1
2018-01-19T16:20:57.678Z,36.0
2018-01-19T16:30:58.500Z,38.9
2018-01-19T16:40:58.260Z,40.6
2018-01-19T16:50:58.062Z,46.1
2018-01-19T17:00:57.801Z,46.1
2018-01-19T17:10:57.624Z,49.4
2018-01-19T17:20:57.478Z,55.0
2018-01-19T17:30:58.268Z,52.3
2018-01-19T17:40:58.025Z,52.6
2018-01-19T17:50:57.977Z,56.8
2018-01-19T18:00:57.742Z,52.9
2018-01-19T18:10:57.487Z,57.3
2018-01-19T18:20:58.327Z,56.1
2018-01-19T18:30:58.116Z,52.8
2018-01-19T18:40:57.927Z,60.7
2018-01-19T18:50:57.792Z,57.8
2018-01-19T19:00:57.520Z,67.9
2018-01-19T19:10:58.274Z,68.1
2018-01-19T19:20:58.238Z,82.3
2018-01-19T19:30:58.049Z,74.4
2018-01-19T19:40:57.804Z,75.0
2018-01-19T19:50:57.610Z,73.9
2018-01-19T20:00:58.316Z,79.4
2018-01-19T20:10:58.086Z,76.4
2018-01-19T20:20:58.022Z,77.5
2018-01-19T20:30:57.751Z,75.5
2018-01-19T20:40:57.518Z,73.6
2018-01-19T20:50:58.291Z,79.5
2018-01-19T21:00:58.307Z,80.8
2018-01-19T21:10:58.096Z,77.4
2018-01-19T21:20:58.097Z,80.0
2018-01-19T21:30:57.844Z,77.6
2018-01-19T21:40:57.593Z,78.0
2018-01-19T21:50:58.346Z,78.0
2018-01-19T22:00:58.110Z,85.1
2018-01-19T22:10:57.812Z,82.5
2018-01-19T22:20:57.657Z,79.0
2018-01-19T22:30:58.340Z,80.3
2018-01-19T22:40:58.006Z,83.1
2018-01-19T22:50:57.720Z,85.3
2018-01-19T23:00:57.420Z,92.3
2018-01-19T23:10:58.126Z,93.8
2018-01-19T23:20:57.977Z,98.8
2018-01-19T23:30:57.620Z,109.1
2018-01-19T23:40:58.416Z,108.7
2018-01-19T23:50:58.140Z,109.5
